createdAt,value
2023-03-05T00:01:39.957Z,54.92
2023-03-05T00:06:43.017Z,56.13
2023-03-05T00:11:46.098Z,55.10
2023-03-05T00:16:50.314Z,57.88
2023-03-05T00:21:53.620Z,54.28
2023-03-05T00:26:56.472Z,55.50
2023-03-05T00:32:00.795Z,51.15
2023-03-05T00:37:03.892Z,54.45
2023-03-05T00:42:07.380Z,48.42
2023-03-05T00:47:11.779Z,55.50
2023-03-05T00:52:14.949Z,47.40
2023-03-05T00:57:18.580Z,50.45
2023-03-05T01:02:22.802Z,54.08
2023-03-05T01:07:26.778Z,51.10
2023-03-05T01:12:29.728Z,52.65
2023-03-05T01:17:34.477Z,48.85
2023-03-05T01:22:37.408Z,49.50
2023-03-05T01:27:41.200Z,54.20
2023-03-05T01:32:45.518Z,49.65
2023-03-05T01:37:48.748Z,50.05
2023-03-05T01:42:58.316Z,48.35
2023-03-05T01:48:02.500Z,51.22
2023-03-05T01:53:07.841Z,49.60
2023-03-05T01:58:14.124Z,48.90
2023-03-05T02:03:18.702Z,44.83
2023-03-05T02:08:23.084Z,55.25
2023-03-05T02:13:28.363Z,50.25
2023-03-05T02:18:32.738Z,52.42
2023-03-05T02:23:38.223Z,49.47
2023-03-05T02:28:45.253Z,50.30
2023-03-05T02:33:49.346Z,47.35
2023-03-05T02:38:57.045Z,48.38
2023-03-05T02:43:59.976Z,54.67
2023-03-05T02:49:03.010Z,50.55
2023-03-05T02:54:07.586Z,56.17
2023-03-05T02:59:11.393Z,52.67
2023-03-05T03:04:20.614Z,50.90
2023-03-05T03:09:25.975Z,48.72
2023-03-05T03:14:28.901Z,47.83
2023-03-05T03:19:31.931Z,48.50
2023-03-05T03:24:37.454Z,48.42
2023-03-05T03:29:40.339Z,51.42
2023-03-05T03:34:44.600Z,47.42
2023-03-05T03:39:48.965Z,46.85
2023-03-05T03:44:52.333Z,45.42
2023-03-05T03:49:55.341Z,47.03
2023-03-05T03:55:01.645Z,47.63
2023-03-05T04:00:07.287Z,47.70
2023-03-05T04:05:15.055Z,49.42
2023-03-05T04:10:19.679Z,47.40
2023-03-05T04:15:23.611Z,48.90
2023-03-05T04:20:26.563Z,46.33
2023-03-05T04:25:30.773Z,46.47
2023-03-05T04:30:33.874Z,45.53
2023-03-05T04:35:42.699Z,48.08
2023-03-05T04:40:47.174Z,46.22
2023-03-05T04:45:50.067Z,45.00
2023-03-05T04:50:52.965Z,47.25
2023-03-05T04:55:57.962Z,48.63
2023-03-05T05:01:04.436Z,49.75
2023-03-05T05:06:08.019Z,53.97
2023-03-05T05:11:15.156Z,50.05
2023-03-05T05:16:18.132Z,51.60
2023-03-05T05:21:21.075Z,49.92
2023-03-05T05:26:25.266Z,49.10
2023-03-05T05:31:28.260Z,50.90
2023-03-05T05:36:31.141Z,53.97
2023-03-05T05:41:35.412Z,55.20
2023-03-05T05:46:38.597Z,50.83
2023-03-05T05:51:41.464Z,49.05
2023-03-05T05:56:45.678Z,50.63
2023-03-05T06:01:48.591Z,49.00
2023-03-05T06:06:51.533Z,54.35
2023-03-05T06:11:55.775Z,53.30
2023-03-05T06:16:58.666Z,55.22
2023-03-05T06:22:01.592Z,50.63
2023-03-05T06:27:06.701Z,50.90
2023-03-05T06:32:10.022Z,46.78
2023-03-05T06:37:12.909Z,49.40
2023-03-05T06:42:19.359Z,45.55
2023-03-05T06:47:22.204Z,45.28
2023-03-05T06:52:25.149Z,43.43
2023-03-05T06:57:29.331Z,47.50
2023-03-05T07:02:32.723Z,44.78
2023-03-05T07:07:35.898Z,52.95
2023-03-05T07:12:41.196Z,51.03
2023-03-05T07:17:44.930Z,53.08
2023-03-05T07:22:47.813Z,53.42
2023-03-05T07:27:52.148Z,51.42
2023-03-05T07:32:55.041Z,51.50
2023-03-05T07:37:58.005Z,62.35
2023-03-05T07:43:02.222Z,55.00
2023-03-05T07:48:14.042Z,53.95
2023-03-05T07:53:17.534Z,54.47
2023-03-05T07:58:21.867Z,57.25
2023-03-05T08:03:25.841Z,55.47
2023-03-05T08:08:29.736Z,55.80
2023-03-05T08:13:34.292Z,63.50
2023-03-05T08:18:37.205Z,65.35
2023-03-05T08:23:40.142Z,63.00
2023-03-05T08:28:44.384Z,62.78
2023-03-05T08:33:47.212Z,63.42
2023-03-05T08:38:50.562Z,65.82
2023-03-05T08:43:54.810Z,65.47
2023-03-05T08:48:57.832Z,64.95
2023-03-05T08:54:01.768Z,64.75
2023-03-05T08:59:06.873Z,65.85
2023-03-05T09:04:10.912Z,74.30
2023-03-05T09:09:14.152Z,67.07
2023-03-05T09:14:18.670Z,66.10
2023-03-05T09:19:21.617Z,70.32
2023-03-05T09:24:24.485Z,67.30
2023-03-05T09:29:31.168Z,69.22
2023-03-05T09:34:34.567Z,62.75
2023-03-05T09:39:37.900Z,66.18
2023-03-05T09:44:48.624Z,72.70
2023-03-05T09:49:59.008Z,68.80
2023-03-05T09:55:03.051Z,64.95
2023-03-05T10:00:22.154Z,68.93
2023-03-05T10:05:32.088Z,69.50
2023-03-05T10:10:44.211Z,66.75
2023-03-05T10:15:58.324Z,71.00
2023-03-05T10:21:04.801Z,70.25
2023-03-05T10:26:21.644Z,64.72
2023-03-05T10:31:37.142Z,69.57
2023-03-05T10:36:57.184Z,65.53
2023-03-05T10:42:09.071Z,60.42
2023-03-05T10:47:21.821Z,68.38
2023-03-05T10:52:31.950Z,60.88
2023-03-05T10:57:36.381Z,55.22
2023-03-05T11:02:55.293Z,58.53
2023-03-05T11:08:00.929Z,58.33
2023-03-05T11:13:25.688Z,60.30
2023-03-05T11:18:44.345Z,59.17
2023-03-05T11:24:05.336Z,64.03
2023-03-05T11:29:19.712Z,62.22
2023-03-05T11:34:31.361Z,59.63
2023-03-05T11:39:38.211Z,58.35
2023-03-05T11:44:48.572Z,59.42
2023-03-05T11:49:56.224Z,57.13
2023-03-05T11:55:07.850Z,80.25
2023-03-05T12:00:18.139Z,58.40
2023-03-05T12:05:24.165Z,57.35
2023-03-05T12:10:28.246Z,62.42
2023-03-05T12:16:01.829Z,58.35
2023-03-05T12:21:15.900Z,57.80
2023-03-05T12:26:59.519Z,57.30
2023-03-05T12:32:04.497Z,61.10
2023-03-05T12:37:13.604Z,62.72
2023-03-05T12:42:47.323Z,57.95
2023-03-05T12:48:30.137Z,56.72
2023-03-05T12:53:38.237Z,61.97
2023-03-05T12:58:47.287Z,58.08
2023-03-05T13:03:56.377Z,57.35
2023-03-05T13:09:17.271Z,56.78
2023-03-05T13:14:43.331Z,57.55
2023-03-05T13:19:47.464Z,58.97
2023-03-05T13:25:06.568Z,53.00
2023-03-05T13:30:22.787Z,55.38
2023-03-05T13:35:26.139Z,51.70
2023-03-05T13:40:32.479Z,54.28
2023-03-05T13:45:35.690Z,53.00
2023-03-05T13:50:40.476Z,50.53
2023-03-05T13:55:45.162Z,56.75
2023-03-05T14:00:49.946Z,58.40
2023-03-05T14:05:53.225Z,52.60
2023-03-05T14:11:14.661Z,55.25
2023-03-05T14:16:28.074Z,51.03
2023-03-05T14:21:49.194Z,55.30
2023-03-05T14:27:05.810Z,57.33
2023-03-05T14:32:24.822Z,55.90
2023-03-05T14:37:31.767Z,58.80
2023-03-05T14:42:39.179Z,60.95
2023-03-05T14:47:42.925Z,52.70
2023-03-05T14:52:47.108Z,57.15
2023-03-05T14:58:04.555Z,55.38
2023-03-05T15:03:07.921Z,54.33
2023-03-05T15:08:15.858Z,54.28
2023-03-05T15:13:26.270Z,54.67
2023-03-05T15:18:29.640Z,54.58
2023-03-05T15:23:38.538Z,50.42
2023-03-05T15:28:44.281Z,56.45
2023-03-05T15:33:57.601Z,58.72
2023-03-05T15:39:00.488Z,63.15
2023-03-05T15:44:04.915Z,57.63
2023-03-05T15:49:07.843Z,51.85
2023-03-05T15:54:11.731Z,54.90
2023-03-05T15:59:16.248Z,51.67
2023-03-05T16:04:20.138Z,51.67
2023-03-05T16:09:23.524Z,52.90
2023-03-05T16:14:29.870Z,53.00
2023-03-05T16:19:53.810Z,54.25
2023-03-05T16:24:57.452Z,53.00
2023-03-05T16:30:01.865Z,55.63
2023-03-05T16:35:11.857Z,48.20
2023-03-05T16:40:15.565Z,52.28
2023-03-05T16:45:20.029Z,51.65
2023-03-05T16:50:23.032Z,49.45
2023-03-05T16:55:25.953Z,50.03
2023-03-05T17:00:30.431Z,55.17
2023-03-05T17:05:36.847Z,49.95
2023-03-05T17:10:39.815Z,49.47
2023-03-05T17:20:47.118Z,50.97
2023-03-05T17:25:53.415Z,58.13
2023-03-05T17:31:20.608Z,53.50
2023-03-05T17:36:24.697Z,97.53
2023-03-05T17:41:37.853Z,50.63
2023-03-05T17:46:42.481Z,53.40
2023-03-05T17:51:45.458Z,53.47
2023-03-05T17:56:48.812Z,54.15
2023-03-05T18:01:53.281Z,53.15
2023-03-05T18:06:56.275Z,50.10
2023-03-05T18:12:00.246Z,53.05
2023-03-05T18:17:04.600Z,51.15
2023-03-05T18:22:07.749Z,51.95
2023-03-05T18:27:11.014Z,50.13
2023-03-05T18:32:15.333Z,67.00
2023-03-05T18:37:33.269Z,55.97
2023-03-05T18:42:37.186Z,60.15
2023-03-05T18:48:12.771Z,57.38
2023-03-05T18:54:13.381Z,54.58
2023-03-05T18:59:20.716Z,55.40
2023-03-05T19:04:33.812Z,54.28
2023-03-05T19:09:52.036Z,52.33
2023-03-05T19:14:54.915Z,53.75
2023-03-05T19:19:59.786Z,51.72
2023-03-05T19:25:02.900Z,50.63
2023-03-05T19:30:11.406Z,49.60
2023-03-05T19:35:17.584Z,52.45
2023-03-05T19:40:20.983Z,47.92
2023-03-05T19:45:23.859Z,49.33
2023-03-05T19:50:28.293Z,50.22
2023-03-05T19:55:40.339Z,49.10
2023-03-05T20:00:43.171Z,46.30
2023-03-05T20:05:47.430Z,52.35
2023-03-05T20:10:50.370Z,48.30
2023-03-05T20:15:53.590Z,51.05
2023-03-05T20:21:02.108Z,48.78
2023-03-05T20:26:06.827Z,50.83
2023-03-05T20:31:09.889Z,51.80
2023-03-05T20:36:26.618Z,51.70
2023-03-05T20:41:31.553Z,49.03
2023-03-05T20:46:36.050Z,51.08
2023-03-05T20:51:40.572Z,52.33
2023-03-05T20:56:43.962Z,52.85
2023-03-05T21:01:46.858Z,51.88
2023-03-05T21:06:54.261Z,49.92
2023-03-05T21:11:57.163Z,50.25
2023-03-05T21:17:00.101Z,57.28
2023-03-05T21:22:04.617Z,50.60
2023-03-05T21:27:07.495Z,51.17
2023-03-05T21:32:10.484Z,49.88
2023-03-05T21:37:14.805Z,48.70
2023-03-05T21:42:17.695Z,48.45
2023-03-05T21:47:20.595Z,50.25
2023-03-05T21:52:24.831Z,52.15
2023-03-05T21:57:29.117Z,48.35
2023-03-05T22:02:32.040Z,49.85
2023-03-05T22:07:36.252Z,47.58
2023-03-05T22:12:51.742Z,47.67
2023-03-05T22:17:54.591Z,48.63
2023-03-05T22:22:58.303Z,42.78
2023-03-05T22:28:02.598Z,43.35
2023-03-05T22:33:05.608Z,45.85
2023-03-05T22:38:08.856Z,46.20
2023-03-05T22:43:13.638Z,43.42
2023-03-05T22:48:16.656Z,43.22
2023-03-05T22:53:19.555Z,45.90
2023-03-05T22:58:23.867Z,46.92
2023-03-05T23:03:26.981Z,47.75
2023-03-05T23:08:29.961Z,44.58
2023-03-05T23:13:34.248Z,41.70
2023-03-05T23:18:37.424Z,43.92
2023-03-05T23:23:40.304Z,41.05
2023-03-05T23:28:44.555Z,44.10
2023-03-05T23:33:47.483Z,41.33
2023-03-05T23:38:51.740Z,43.75
2023-03-05T23:43:55.992Z,44.20
2023-03-05T23:48:58.848Z,43.28
2023-03-05T23:54:01.747Z,42.97
2023-03-05T23:59:05.958Z,42.85
